createdAt,value
2019-04-16T00:01:15.014Z,19.53
2019-04-16T00:03:46.490Z,16.23
2019-04-16T00:06:33.883Z,17.97
2019-04-16T00:09:20.117Z,18.33
2019-04-16T00:11:53.772Z,18.23
2019-04-16T00:14:25.109Z,14.27
2019-04-16T00:16:54.535Z,17.80
2019-04-16T00:19:23.975Z,15.83
2019-04-16T00:22:00.825Z,15.13
2019-04-16T00:24:31.910Z,17.47
2019-04-16T00:27:01.689Z,16.23
2019-04-16T00:29:33.020Z,16.47
2019-04-16T00:32:02.687Z,17.23
2019-04-16T00:34:33.811Z,14.90
2019-04-16T00:37:03.319Z,16.07
2019-04-16T00:39:32.769Z,15.07
2019-04-16T00:42:02.507Z,16.73
2019-04-16T00:44:31.944Z,17.17
2019-04-16T00:47:01.387Z,15.70
2019-04-16T00:49:30.822Z,17.13
2019-04-16T00:52:00.525Z,19.13
2019-04-16T00:54:29.953Z,15.83
2019-04-16T00:56:59.737Z,18.00
2019-04-16T00:59:29.453Z,17.10
2019-04-16T01:01:59.272Z,16.63
2019-04-16T01:04:28.965Z,19.63
2019-04-16T01:06:58.410Z,15.87
2019-04-16T01:09:27.839Z,18.37
2019-04-16T01:11:57.374Z,20.27
2019-04-16T01:14:27.487Z,16.27
2019-04-16T01:16:57.255Z,17.77
2019-04-16T01:19:26.933Z,16.37
2019-04-16T01:21:56.384Z,17.00
2019-04-16T01:24:26.139Z,18.70
2019-04-16T01:26:58.205Z,15.80
2019-04-16T01:29:27.285Z,17.03
2019-04-16T01:32:01.601Z,17.73
2019-04-16T01:34:32.677Z,18.03
2019-04-16T01:37:07.635Z,18.80
2019-04-16T01:39:41.892Z,17.10
2019-04-16T01:42:11.405Z,17.47
2019-04-16T01:44:40.845Z,18.20
2019-04-16T01:47:10.404Z,22.10
2019-04-16T01:49:42.064Z,17.90
2019-04-16T01:52:10.965Z,16.97
2019-04-16T01:54:40.403Z,19.47
2019-04-16T01:57:10.090Z,20.90
2019-04-16T01:59:39.866Z,17.67
2019-04-16T02:02:14.339Z,18.33
2019-04-16T02:04:40.976Z,18.00
2019-04-16T02:07:10.656Z,17.23
2019-04-16T02:09:40.326Z,15.17
2019-04-16T02:12:12.775Z,18.37
2019-04-16T02:14:40.925Z,18.60
2019-04-16T02:17:10.626Z,18.00
2019-04-16T02:19:40.311Z,15.77
2019-04-16T02:22:12.635Z,18.93
2019-04-16T02:24:40.915Z,16.77
2019-04-16T02:27:10.345Z,18.40
2019-04-16T02:29:39.792Z,19.27
2019-04-16T02:32:09.832Z,16.20
2019-04-16T02:34:39.452Z,19.97
2019-04-16T02:37:08.959Z,17.90
2019-04-16T02:39:53.092Z,15.37
2019-04-16T02:42:10.071Z,15.83
2019-04-16T02:44:39.568Z,19.13
2019-04-16T02:47:09.318Z,15.90
2019-04-16T02:49:38.834Z,16.53
2019-04-16T02:52:17.313Z,16.83
2019-04-16T02:54:48.831Z,14.63
2019-04-16T02:57:31.957Z,17.17
2019-04-16T03:00:04.761Z,16.63
2019-04-16T03:02:45.194Z,14.80
2019-04-16T03:05:16.266Z,17.30
2019-04-16T03:07:46.021Z,13.90
2019-04-16T03:10:15.474Z,16.77
2019-04-16T03:12:45.156Z,15.60
2019-04-16T03:15:16.222Z,18.67
2019-04-16T03:17:46.342Z,18.87
2019-04-16T03:20:20.882Z,18.37
2019-04-16T03:22:51.800Z,14.73
2019-04-16T03:25:21.235Z,15.07
2019-04-16T03:27:51.443Z,16.40
2019-04-16T03:30:21.840Z,16.30
2019-04-16T03:32:51.929Z,17.23
2019-04-16T03:35:25.462Z,16.50
2019-04-16T03:37:52.671Z,17.40
2019-04-16T03:40:25.554Z,21.93
2019-04-16T03:42:53.275Z,19.17
2019-04-16T03:45:22.705Z,18.87
2019-04-16T03:47:52.500Z,18.40
2019-04-16T03:50:21.924Z,18.60
2019-04-16T03:52:51.355Z,15.77
2019-04-16T03:55:25.413Z,17.03
2019-04-16T03:57:52.240Z,16.63
2019-04-16T04:00:21.743Z,17.30
2019-04-16T04:02:54.274Z,18.50
2019-04-16T04:05:22.356Z,16.20
2019-04-16T04:07:54.989Z,14.97
2019-04-16T04:10:30.529Z,22.67
2019-04-16T04:12:54.190Z,16.63
2019-04-16T04:15:26.467Z,19.30
2019-04-16T04:17:55.415Z,19.07
2019-04-16T04:20:25.130Z,19.97
2019-04-16T04:22:57.064Z,16.50
2019-04-16T04:25:26.070Z,18.53
2019-04-16T04:27:55.887Z,17.60
2019-04-16T04:30:28.813Z,17.73
2019-04-16T04:32:57.278Z,20.30
2019-04-16T04:35:26.730Z,24.07
2019-04-16T04:37:56.454Z,20.37
2019-04-16T04:40:25.938Z,20.40
2019-04-16T04:42:57.685Z,21.57
2019-04-16T04:45:27.124Z,19.67
2019-04-16T04:47:56.831Z,20.87
2019-04-16T04:50:26.541Z,18.93
2019-04-16T04:52:56.248Z,19.63
2019-04-16T04:55:26.940Z,24.63
2019-04-16T04:57:56.793Z,18.90
2019-04-16T05:00:26.235Z,18.87
2019-04-16T05:02:55.670Z,18.33
2019-04-16T05:05:25.861Z,20.03
2019-04-16T05:07:59.653Z,22.93
2019-04-16T05:10:26.738Z,20.97
2019-04-16T05:12:56.482Z,27.93
2019-04-16T05:15:26.375Z,20.60
2019-04-16T05:17:57.640Z,20.47
2019-04-16T05:20:29.805Z,20.73
2019-04-16T05:22:58.506Z,18.67
2019-04-16T05:25:33.016Z,21.73
2019-04-16T05:27:59.347Z,19.07
2019-04-16T05:30:28.787Z,18.13
2019-04-16T05:32:58.225Z,19.40
2019-04-16T05:35:27.670Z,20.20
2019-04-16T05:37:57.366Z,19.13
2019-04-16T05:40:28.032Z,19.73
2019-04-16T05:42:58.910Z,18.80
2019-04-16T05:45:29.428Z,23.10
2019-04-16T05:47:58.859Z,19.40
2019-04-16T05:50:29.803Z,16.83
2019-04-16T05:52:59.490Z,18.63
2019-04-16T05:55:31.352Z,20.53
2019-04-16T05:58:00.842Z,17.60
2019-04-16T06:00:32.220Z,20.13
2019-04-16T06:03:01.926Z,18.40
2019-04-16T06:05:31.375Z,21.97
2019-04-16T06:08:10.865Z,22.50
2019-04-16T06:10:40.788Z,22.10
2019-04-16T06:13:12.886Z,20.90
2019-04-16T06:15:44.604Z,24.70
2019-04-16T06:18:18.031Z,22.30
2019-04-16T06:20:49.427Z,18.03
2019-04-16T06:23:21.290Z,21.77
2019-04-16T06:25:52.656Z,20.40
2019-04-16T06:28:24.475Z,21.63
2019-04-16T06:31:05.619Z,21.53
2019-04-16T06:33:44.302Z,20.67
2019-04-16T06:36:24.827Z,21.23
2019-04-16T06:39:10.797Z,21.03
2019-04-16T06:41:57.468Z,22.33
2019-04-16T06:44:29.855Z,20.67
2019-04-16T06:47:10.610Z,19.30
2019-04-16T06:49:41.927Z,21.53
2019-04-16T06:52:29.280Z,20.33
2019-04-16T06:55:12.406Z,24.03
2019-04-16T06:57:52.224Z,20.60
2019-04-16T07:00:33.867Z,20.77
2019-04-16T07:03:18.142Z,23.40
2019-04-16T07:06:04.028Z,18.43
2019-04-16T07:08:50.686Z,20.83
2019-04-16T07:11:21.835Z,20.80
2019-04-16T07:13:51.534Z,22.37
2019-04-16T07:16:20.989Z,22.27
2019-04-16T07:18:50.435Z,20.00
2019-04-16T07:21:19.867Z,21.77
2019-04-16T07:23:49.406Z,22.63
2019-04-16T07:26:19.389Z,22.13
2019-04-16T07:28:58.555Z,22.30
2019-04-16T07:31:43.608Z,22.80
2019-04-16T07:34:32.935Z,18.40
2019-04-16T07:37:17.380Z,21.63
2019-04-16T07:40:09.998Z,21.90
2019-04-16T07:42:57.956Z,24.53
2019-04-16T07:45:43.847Z,23.40
2019-04-16T07:48:33.134Z,21.57
2019-04-16T07:51:20.509Z,21.27
2019-04-16T07:53:54.427Z,20.90
2019-04-16T07:56:28.166Z,17.67
2019-04-16T07:59:00.612Z,20.10
2019-04-16T08:01:29.117Z,18.60
2019-04-16T08:04:01.018Z,18.60
2019-04-16T08:06:30.067Z,18.90
2019-04-16T08:08:59.512Z,21.70
2019-04-16T08:11:29.278Z,21.20
2019-04-16T08:13:58.738Z,19.67
2019-04-16T08:16:28.171Z,19.13
2019-04-16T08:18:57.635Z,22.00
2019-04-16T08:21:27.075Z,20.60
2019-04-16T08:24:00.878Z,20.87
2019-04-16T08:26:30.326Z,19.97
2019-04-16T08:28:59.769Z,23.17
2019-04-16T08:31:30.200Z,19.77
2019-04-16T08:33:59.887Z,18.17
2019-04-16T08:36:29.320Z,20.07
2019-04-16T08:38:58.767Z,22.33
2019-04-16T08:41:28.218Z,20.73
2019-04-16T08:43:59.734Z,21.13
2019-04-16T08:46:29.109Z,21.70
2019-04-16T08:48:58.609Z,20.43
2019-04-16T08:51:30.923Z,22.50
2019-04-16T08:53:59.314Z,23.07
2019-04-16T08:56:28.767Z,23.43
2019-04-16T08:59:00.885Z,21.90
2019-04-16T09:01:31.324Z,23.03
2019-04-16T09:04:02.433Z,23.93
2019-04-16T09:06:32.006Z,24.07
2019-04-16T09:09:12.623Z,25.47
2019-04-16T09:11:35.600Z,23.30
2019-04-16T09:14:06.860Z,28.30
2019-04-16T09:16:43.706Z,23.27
2019-04-16T09:19:15.083Z,22.63
2019-04-16T09:21:44.772Z,21.73
2019-04-16T09:24:21.893Z,23.93
2019-04-16T09:26:56.482Z,20.73
2019-04-16T09:29:44.028Z,23.70
2019-04-16T09:32:20.726Z,25.43
2019-04-16T09:35:10.734Z,24.73
2019-04-16T09:37:47.555Z,23.13
2019-04-16T09:40:22.376Z,24.80
2019-04-16T09:42:52.062Z,25.30
2019-04-16T09:45:24.386Z,22.43
2019-04-16T09:47:53.047Z,23.23
2019-04-16T09:50:22.644Z,21.40
2019-04-16T09:52:55.224Z,24.93
2019-04-16T09:55:23.923Z,24.30
2019-04-16T09:57:53.364Z,24.07
2019-04-16T10:00:24.870Z,24.43
2019-04-16T10:02:55.300Z,25.77
2019-04-16T10:05:26.538Z,25.20
2019-04-16T10:07:57.035Z,24.57
2019-04-16T10:10:27.857Z,24.10
2019-04-16T10:12:58.145Z,24.83
2019-04-16T10:15:27.621Z,23.03
2019-04-16T10:17:58.531Z,29.00
2019-04-16T10:20:28.515Z,24.43
2019-04-16T10:23:00.004Z,23.53
2019-04-16T10:25:29.525Z,23.83
2019-04-16T10:28:01.991Z,24.83
2019-04-16T10:30:34.152Z,23.53
2019-04-16T10:33:03.557Z,22.37
2019-04-16T10:35:33.007Z,20.90
2019-04-16T10:38:04.460Z,21.50
2019-04-16T10:40:35.546Z,21.07
2019-04-16T10:43:22.641Z,23.20
2019-04-16T10:45:57.598Z,22.53
2019-04-16T10:48:30.738Z,22.30
2019-04-16T10:51:15.560Z,23.30
2019-04-16T10:53:59.526Z,26.17
2019-04-16T10:56:31.712Z,25.23
2019-04-16T10:59:11.414Z,22.67
2019-04-16T11:01:42.495Z,22.97
2019-04-16T11:04:17.517Z,41.37
2019-04-16T11:06:48.621Z,30.13
2019-04-16T11:09:18.043Z,22.10
2019-04-16T11:11:47.518Z,23.43
2019-04-16T11:14:16.970Z,25.07
2019-04-16T11:16:48.271Z,22.77
2019-04-16T11:19:18.139Z,22.50
2019-04-16T11:21:47.576Z,21.40
2019-04-16T11:24:20.270Z,26.33
2019-04-16T11:26:48.199Z,21.80
2019-04-16T11:29:17.639Z,24.73
2019-04-16T11:31:47.116Z,22.17
2019-04-16T11:34:17.597Z,20.63
2019-04-16T11:36:47.300Z,22.90
2019-04-16T11:39:16.776Z,22.37
2019-04-16T11:41:46.206Z,19.27
2019-04-16T11:44:17.313Z,18.97
2019-04-16T11:46:46.963Z,22.00
2019-04-16T11:49:16.731Z,20.27
2019-04-16T11:51:46.494Z,19.50
2019-04-16T11:54:16.215Z,18.63
2019-04-16T11:56:46.002Z,18.60
2019-04-16T11:59:15.753Z,21.30
2019-04-16T12:01:47.714Z,21.57
2019-04-16T12:04:24.362Z,23.07
2019-04-16T12:07:11.978Z,20.13
2019-04-16T12:09:47.161Z,21.30
2019-04-16T12:12:18.219Z,22.83
2019-04-16T12:14:53.505Z,19.73
2019-04-16T12:17:30.367Z,17.50
2019-04-16T12:20:01.508Z,22.60
2019-04-16T12:22:32.911Z,17.10
2019-04-16T12:25:07.764Z,15.97
2019-04-16T12:27:48.989Z,17.53
2019-04-16T12:30:36.194Z,18.83
2019-04-16T12:33:22.700Z,16.50
2019-04-16T12:35:51.935Z,18.60
2019-04-16T12:38:29.253Z,18.37
2019-04-16T12:41:04.365Z,17.73
2019-04-16T12:43:38.247Z,15.60
2019-04-16T12:46:10.027Z,16.60
2019-04-16T12:48:57.597Z,16.63
2019-04-16T12:51:39.822Z,16.90
2019-04-16T12:54:25.567Z,17.03
2019-04-16T12:57:16.190Z,17.60
2019-04-16T12:59:58.356Z,17.33
2019-04-16T13:02:29.744Z,17.50
2019-04-16T13:05:09.822Z,16.17
2019-04-16T13:07:40.932Z,16.10
2019-04-16T13:10:14.578Z,15.80
2019-04-16T13:12:51.159Z,16.87
2019-04-16T13:15:28.009Z,18.23
2019-04-16T13:18:04.631Z,19.20
2019-04-16T13:20:38.466Z,20.50
2019-04-16T13:23:15.231Z,19.37
2019-04-16T13:25:56.114Z,17.73
2019-04-16T13:28:25.925Z,20.83
2019-04-16T13:30:55.357Z,17.30
2019-04-16T13:33:24.813Z,17.00
2019-04-16T13:35:54.259Z,18.73
2019-04-16T13:38:25.687Z,20.50
2019-04-16T13:40:55.482Z,16.27
2019-04-16T13:43:26.805Z,16.80
2019-04-16T13:45:58.163Z,18.77
2019-04-16T13:48:29.367Z,15.30
2019-04-16T13:51:00.778Z,19.73
2019-04-16T13:53:43.785Z,19.00
2019-04-16T13:56:18.499Z,24.83
2019-04-16T13:58:47.952Z,16.73
2019-04-16T14:01:19.034Z,16.87
2019-04-16T14:03:48.770Z,17.93
2019-04-16T14:06:18.303Z,18.83
2019-04-16T14:08:47.755Z,17.63
2019-04-16T14:11:19.682Z,18.70
2019-04-16T14:13:50.150Z,18.00
2019-04-16T14:16:19.542Z,14.80
2019-04-16T14:18:49.233Z,14.00
2019-04-16T14:21:19.093Z,16.27
2019-04-16T14:23:49.823Z,16.07
2019-04-16T14:26:19.275Z,16.97
2019-04-16T14:28:52.243Z,16.07
2019-04-16T14:31:22.127Z,17.73
2019-04-16T14:33:59.181Z,16.20
2019-04-16T14:36:28.981Z,15.80
2019-04-16T14:39:06.805Z,15.70
2019-04-16T14:41:34.579Z,14.77
2019-04-16T14:44:05.671Z,16.43
2019-04-16T14:46:35.187Z,13.87
2019-04-16T14:49:04.636Z,13.10
2019-04-16T14:51:34.351Z,11.83
2019-04-16T14:54:05.697Z,15.13
2019-04-16T14:56:39.179Z,14.17
2019-04-16T14:59:32.979Z,20.23
2019-04-16T15:02:04.102Z,13.97
2019-04-16T15:04:35.192Z,13.83
2019-04-16T15:07:12.435Z,14.73
2019-04-16T15:09:43.871Z,9.20
2019-04-16T15:12:13.081Z,9.40
2019-04-16T15:14:51.208Z,8.73
2019-04-16T15:17:22.318Z,7.90
2019-04-16T15:19:53.485Z,10.10
2019-04-16T15:22:27.224Z,9.50
2019-04-16T15:25:14.560Z,7.17
2019-04-16T15:27:49.238Z,10.93
2019-04-16T15:30:28.313Z,7.97
2019-04-16T15:33:13.906Z,7.70
2019-04-16T15:36:00.247Z,10.13
2019-04-16T15:38:37.538Z,10.93
2019-04-16T15:41:24.937Z,10.80
2019-04-16T15:44:11.756Z,9.70
2019-04-16T15:46:59.284Z,10.67
2019-04-16T15:49:45.380Z,11.83
2019-04-16T15:52:29.822Z,9.87
2019-04-16T15:55:15.984Z,11.70
2019-04-16T15:57:51.352Z,10.00
2019-04-16T16:00:28.641Z,10.30
2019-04-16T16:03:04.016Z,10.57
2019-04-16T16:05:35.515Z,10.60
2019-04-16T16:08:15.596Z,10.83
2019-04-16T16:10:47.612Z,15.73
2019-04-16T16:13:17.307Z,14.93
2019-04-16T16:15:46.983Z,13.67
2019-04-16T16:18:16.427Z,14.80
2019-04-16T16:20:45.886Z,15.97
2019-04-16T16:23:15.581Z,17.70
2019-04-16T16:25:45.310Z,21.13
2019-04-16T16:28:14.747Z,30.93
2019-04-16T16:30:44.534Z,21.07
2019-04-16T16:33:13.977Z,16.33
2019-04-16T16:35:57.063Z,18.93
2019-04-16T16:38:15.169Z,13.73
2019-04-16T16:40:49.414Z,18.53
2019-04-16T16:43:16.327Z,17.63
2019-04-16T16:46:04.573Z,15.57
2019-04-16T16:48:34.625Z,14.97
2019-04-16T16:51:04.148Z,17.37
2019-04-16T16:53:37.972Z,16.70
2019-04-16T16:56:24.418Z,16.07
2019-04-16T16:58:59.411Z,16.90
2019-04-16T17:01:49.169Z,19.90
2019-04-16T17:04:20.329Z,17.87
2019-04-16T17:06:50.070Z,16.00
2019-04-16T17:09:21.226Z,17.67
2019-04-16T17:11:51.018Z,17.37
2019-04-16T17:14:20.457Z,15.13
2019-04-16T17:16:49.913Z,19.60
2019-04-16T17:19:19.627Z,14.63
2019-04-16T17:21:49.341Z,15.97
2019-04-16T17:24:19.112Z,16.67
2019-04-16T17:26:49.909Z,14.17
2019-04-16T17:29:20.003Z,14.10
2019-04-16T17:31:50.339Z,13.83
2019-04-16T17:34:20.139Z,14.70
2019-04-16T17:36:49.583Z,16.80
2019-04-16T17:39:20.990Z,16.20
2019-04-16T17:42:03.977Z,18.97
2019-04-16T17:44:33.447Z,16.07
2019-04-16T17:47:10.606Z,15.17
2019-04-16T17:49:53.732Z,15.70
2019-04-16T17:52:43.503Z,16.30
2019-04-16T17:55:14.859Z,15.67
2019-04-16T17:57:55.315Z,17.23
2019-04-16T18:00:42.245Z,19.30
2019-04-16T18:03:22.482Z,17.63
2019-04-16T18:05:53.832Z,18.37
2019-04-16T18:08:41.659Z,16.87
2019-04-16T18:11:13.062Z,18.33
2019-04-16T18:13:44.164Z,15.90
2019-04-16T18:16:16.674Z,16.10
2019-04-16T18:19:00.541Z,19.07
2019-04-16T18:21:31.582Z,17.13
2019-04-16T18:24:08.475Z,16.50
2019-04-16T18:26:45.263Z,16.90
2019-04-16T18:29:21.860Z,15.93
2019-04-16T18:31:57.588Z,17.40
2019-04-16T18:34:34.886Z,15.83
2019-04-16T18:37:17.775Z,16.37
2019-04-16T18:39:54.867Z,16.90
2019-04-16T18:42:26.215Z,15.77
2019-04-16T18:45:13.689Z,16.37
2019-04-16T18:48:03.099Z,16.33
2019-04-16T18:50:26.054Z,13.83
2019-04-16T18:52:54.034Z,14.87
2019-04-16T18:55:23.483Z,14.03
2019-04-16T18:57:53.258Z,15.50
2019-04-16T19:00:40.778Z,18.97
2019-04-16T19:03:14.735Z,18.20
2019-04-16T19:05:41.569Z,15.30
2019-04-16T19:08:11.332Z,18.13
2019-04-16T19:10:40.855Z,17.90
2019-04-16T19:13:11.694Z,18.80
2019-04-16T19:15:41.491Z,15.80
2019-04-16T19:18:19.612Z,16.50
2019-04-16T19:20:42.111Z,16.47
2019-04-16T19:23:11.553Z,13.63
2019-04-16T19:25:41.006Z,14.43
2019-04-16T19:28:10.745Z,13.93
2019-04-16T19:30:40.555Z,10.60
2019-04-16T19:33:10.262Z,11.80
2019-04-16T19:35:39.711Z,12.17
2019-04-16T19:38:09.500Z,11.10
2019-04-16T19:40:38.943Z,11.40
2019-04-16T19:43:08.381Z,10.20
2019-04-16T19:45:40.680Z,9.77
2019-04-16T19:48:09.251Z,10.97
2019-04-16T19:50:38.710Z,12.73
2019-04-16T19:53:13.669Z,13.97
2019-04-16T19:55:39.591Z,13.20
2019-04-16T19:58:09.036Z,14.50
2019-04-16T20:00:38.805Z,15.53
2019-04-16T20:03:08.514Z,16.00
2019-04-16T20:05:37.978Z,19.27
2019-04-16T20:08:07.414Z,14.37
2019-04-16T20:10:37.127Z,14.37
2019-04-16T20:13:06.574Z,20.70
2019-04-16T20:15:36.039Z,14.03
2019-04-16T20:18:07.257Z,15.77
2019-04-16T20:20:37.123Z,14.20
2019-04-16T20:23:06.908Z,15.67
2019-04-16T20:25:36.620Z,14.93
2019-04-16T20:28:09.333Z,14.77
2019-04-16T20:30:37.976Z,14.93
2019-04-16T20:33:07.419Z,13.47
2019-04-16T20:35:36.878Z,13.93
2019-04-16T20:38:06.559Z,11.77
2019-04-16T20:40:36.012Z,11.93
2019-04-16T20:43:05.458Z,13.30
2019-04-16T20:45:34.913Z,13.87
2019-04-16T20:48:04.349Z,14.60
2019-04-16T20:50:33.808Z,12.90
2019-04-16T20:53:06.227Z,15.23
2019-04-16T20:55:34.768Z,14.67
2019-04-16T20:58:04.515Z,17.87
2019-04-16T21:00:35.565Z,17.03
2019-04-16T21:03:05.011Z,16.43
2019-04-16T21:05:35.796Z,15.97
2019-04-16T21:08:05.642Z,14.77
2019-04-16T21:10:36.315Z,12.93
2019-04-16T21:13:06.433Z,14.10
2019-04-16T21:15:36.222Z,14.13
2019-04-16T21:18:10.459Z,13.47
2019-04-16T21:20:37.092Z,14.03
2019-04-16T21:23:07.166Z,13.47
2019-04-16T21:25:37.119Z,14.33
2019-04-16T21:28:21.372Z,13.07
2019-04-16T21:30:52.451Z,13.93
2019-04-16T21:33:29.266Z,14.13
2019-04-16T21:36:04.246Z,14.23
2019-04-16T21:38:33.408Z,13.20
2019-04-16T21:41:03.129Z,13.77
2019-04-16T21:43:35.771Z,14.07
2019-04-16T21:46:04.088Z,13.50
2019-04-16T21:48:36.530Z,17.83
2019-04-16T21:51:06.347Z,14.67
2019-04-16T21:53:35.807Z,15.13
2019-04-16T21:56:08.191Z,16.40
2019-04-16T21:58:36.795Z,15.43
2019-04-16T22:01:10.928Z,13.03
2019-04-16T22:03:42.229Z,13.80
2019-04-16T22:06:11.901Z,13.87
2019-04-16T22:08:41.687Z,13.20
2019-04-16T22:11:11.808Z,16.13
2019-04-16T22:13:42.192Z,14.37
2019-04-16T22:16:11.937Z,15.00
2019-04-16T22:18:42.319Z,13.33
2019-04-16T22:21:11.985Z,15.33
2019-04-16T22:23:41.790Z,13.33
2019-04-16T22:26:11.492Z,15.83
2019-04-16T22:28:44.134Z,12.93
2019-04-16T22:31:12.123Z,14.33
2019-04-16T22:33:41.845Z,13.97
2019-04-16T22:36:11.555Z,13.70
2019-04-16T22:38:42.899Z,12.83
2019-04-16T22:41:27.606Z,12.20
2019-04-16T22:44:15.905Z,11.50
2019-04-16T22:46:53.119Z,12.20
2019-04-16T22:49:23.281Z,14.77
2019-04-16T22:51:53.141Z,12.93
2019-04-16T22:54:22.600Z,12.47
2019-04-16T22:56:53.971Z,12.17
2019-04-16T22:59:23.422Z,11.00
2019-04-16T23:01:53.461Z,12.30
2019-04-16T23:04:26.146Z,12.40
2019-04-16T23:06:54.857Z,12.13
2019-04-16T23:09:26.203Z,13.50
2019-04-16T23:11:56.428Z,12.50
2019-04-16T23:14:26.659Z,12.53
2019-04-16T23:16:56.171Z,12.47
2019-04-16T23:19:26.063Z,14.83
2019-04-16T23:21:55.876Z,15.27
2019-04-16T23:24:25.574Z,15.50
2019-04-16T23:26:55.020Z,15.03
2019-04-16T23:29:24.476Z,15.17
2019-04-16T23:31:56.128Z,14.23
2019-04-16T23:34:25.086Z,12.80
2019-04-16T23:36:54.604Z,13.90
2019-04-16T23:39:24.055Z,12.20
2019-04-16T23:41:53.783Z,14.43
2019-04-16T23:44:25.758Z,13.33
2019-04-16T23:47:10.178Z,13.57
2019-04-16T23:49:48.389Z,13.13
2019-04-16T23:52:22.193Z,13.97
2019-04-16T23:54:58.713Z,12.23
2019-04-16T23:57:46.215Z,13.83
